Time;durP1;ratioP1;P1;durP2;ratioP2;P2;SDS_P1;SDS_P2;PMS_P1;PMS_P2;Temp;Humidity;BMP_temperature;BMP_pressure;BME280_temperature;BME280_humidity;BME280_pressure;Samples;Min_cycle;Max_cycle;Signal;HPM_P1;HPM_P2
2023/05/12 00:01:55;;;;;;;43.87;22.37;;;12.50;99.90;;;;;;5088549;28;20409;-74
2023/05/12 00:04:20;;;;;;;44.78;22.33;;;12.40;99.90;;;;;;5072110;28;20417;-74
2023/05/12 00:06:47;;;;;;;45.73;22.87;;;12.50;99.90;;;;;;5088069;28;20493;-74
2023/05/12 00:09:12;;;;;;;47.60;22.37;;;12.50;99.90;;;;;;5088486;28;20559;-74
2023/05/12 00:11:38;;;;;;;44.20;21.77;;;12.50;99.90;;;;;;5088589;28;20492;-74
2023/05/12 00:14:04;;;;;;;39.13;20.92;;;12.50;99.90;;;;;;5071596;28;20951;-73
2023/05/12 00:16:30;;;;;;;40.38;20.27;;;12.60;99.90;;;;;;5087781;28;20931;-74
2023/05/12 00:18:55;;;;;;;36.57;19.77;;;12.50;99.90;;;;;;5088329;28;20458;-73
2023/05/12 00:21:21;;;;;;;34.50;19.10;;;12.50;99.90;;;;;;5088053;28;20489;-74
2023/05/12 00:23:47;;;;;;;37.97;19.40;;;12.50;99.90;;;;;;5089091;28;20485;-74
2023/05/12 00:26:13;;;;;;;38.47;19.40;;;12.50;99.90;;;;;;5088343;28;20398;-74
2023/05/12 00:28:38;;;;;;;34.07;19.70;;;12.50;99.90;;;;;;5088058;28;20430;-74
2023/05/12 00:31:04;;;;;;;36.05;19.15;;;12.50;99.90;;;;;;5089224;28;20406;-74
2023/05/12 00:33:30;;;;;;;34.03;18.27;;;12.50;99.90;;;;;;5071140;28;20410;-74
2023/05/12 00:35:56;;;;;;;30.47;17.83;;;12.50;99.90;;;;;;5087498;28;20417;-74
2023/05/12 00:38:21;;;;;;;33.20;18.20;;;12.50;99.90;;;;;;5087907;28;20413;-74
2023/05/12 00:40:47;;;;;;;28.90;16.90;;;12.40;99.90;;;;;;5087377;28;20405;-74
2023/05/12 00:43:12;;;;;;;31.15;16.77;;;12.50;99.90;;;;;;5087813;28;20406;-74
2023/05/12 00:45:38;;;;;;;29.60;16.33;;;12.50;99.90;;;;;;5087405;28;20428;-74
2023/05/12 00:48:05;;;;;;;29.48;17.55;;;12.50;99.90;;;;;;5088051;28;20500;-74
2023/05/12 00:50:31;;;;;;;28.57;17.23;;;12.50;99.90;;;;;;5087439;28;20489;-74
2023/05/12 00:52:59;;;;;;;31.77;16.87;;;12.40;99.90;;;;;;5088023;28;20413;-74
2023/05/12 00:55:25;;;;;;;31.58;18.13;;;12.40;99.90;;;;;;5070345;28;20556;-74
2023/05/12 00:57:51;;;;;;;29.27;17.15;;;12.40;99.90;;;;;;5088051;28;20414;-74
2023/05/12 01:00:17;;;;;;;29.87;18.37;;;12.40;99.90;;;;;;5086917;28;20942;-73
2023/05/12 01:02:43;;;;;;;29.52;17.65;;;12.40;99.90;;;;;;5087419;28;20824;-74
2023/05/12 01:05:10;;;;;;;32.35;18.13;;;12.40;99.90;;;;;;5086921;28;20398;-74
2023/05/12 01:07:37;;;;;;;30.83;17.70;;;12.30;99.90;;;;;;5075485;28;20803;-74
2023/05/12 01:10:04;;;;;;;30.10;18.27;;;12.40;99.90;;;;;;5087000;28;20406;-73
2023/05/12 01:12:31;;;;;;;32.77;18.83;;;12.40;99.90;;;;;;5087112;28;20402;-73
2023/05/12 01:14:57;;;;;;;34.03;18.55;;;12.30;99.90;;;;;;5086704;28;20413;-73
2023/05/12 01:17:31;;;;;;;28.30;17.23;;;12.30;99.90;;;;;;5087419;28;20463;-73
2023/05/12 01:20:00;;;;;;;32.47;18.02;;;12.30;99.90;;;;;;5075968;28;20408;-74
2023/05/12 01:22:30;;;;;;;33.65;17.40;;;12.30;99.90;;;;;;5080000;28;20447;-74
2023/05/12 01:25:02;;;;;;;35.63;18.92;;;12.30;99.90;;;;;;5079138;28;20460;-74
2023/05/12 01:27:29;;;;;;;30.50;17.20;;;12.30;99.90;;;;;;5086859;28;20979;-74
2023/05/12 01:30:01;;;;;;;33.78;18.48;;;12.20;99.90;;;;;;5087185;28;20408;-74
2023/05/12 01:32:29;;;;;;;32.13;17.65;;;12.20;99.90;;;;;;5086610;28;20425;-74
2023/05/12 01:34:54;;;;;;;37.80;18.60;;;12.20;99.90;;;;;;5088325;28;20402;-74
2023/05/12 01:37:20;;;;;;;34.40;18.17;;;12.20;99.90;;;;;;5069762;28;20413;-73
2023/05/12 01:39:45;;;;;;;35.93;18.37;;;12.20;99.90;;;;;;5080982;28;20411;-74
2023/05/12 01:42:11;;;;;;;33.78;18.55;;;12.20;99.90;;;;;;5059919;28;20434;-75
2023/05/12 01:44:37;;;;;;;38.80;18.58;;;12.20;99.90;;;;;;5086817;28;20414;-74
2023/05/12 01:47:03;;;;;;;35.67;18.27;;;12.20;99.90;;;;;;5086733;28;20492;-74
2023/05/12 01:49:29;;;;;;;35.07;18.10;;;12.20;99.90;;;;;;5087679;28;20434;-74
2023/05/12 01:51:55;;;;;;;41.15;19.67;;;12.20;99.90;;;;;;5086480;28;20410;-74
2023/05/12 01:54:20;;;;;;;35.67;19.13;;;12.20;99.90;;;;;;5084804;28;20489;-74
2023/05/12 01:56:46;;;;;;;38.45;19.50;;;12.20;99.90;;;;;;5086223;28;20818;-74
2023/05/12 01:59:11;;;;;;;36.47;19.23;;;12.20;99.90;;;;;;5086357;28;20786;-74
2023/05/12 02:01:37;;;;;;;36.13;20.50;;;12.20;99.90;;;;;;5086577;28;20427;-74
2023/05/12 02:04:03;;;;;;;38.30;18.97;;;12.20;99.90;;;;;;5087471;28;20418;-74
2023/05/12 02:06:30;;;;;;;41.88;20.42;;;12.20;99.90;;;;;;5086684;28;20487;-74
2023/05/12 02:08:56;;;;;;;40.42;20.05;;;12.20;99.90;;;;;;5087514;28;20520;-74
2023/05/12 02:11:22;;;;;;;44.55;20.15;;;12.20;99.90;;;;;;5060213;28;20461;-74
2023/05/12 02:13:47;;;;;;;42.13;20.27;;;12.20;99.90;;;;;;5087642;28;20755;-74
2023/05/12 02:16:13;;;;;;;38.33;19.93;;;12.20;99.90;;;;;;5086577;28;20745;-74
2023/05/12 02:18:39;;;;;;;44.75;20.08;;;12.20;99.90;;;;;;5084120;28;20437;-74
2023/05/12 02:21:05;;;;;;;39.87;20.50;;;12.20;99.90;;;;;;5067859;28;20403;-74
2023/05/12 02:23:30;;;;;;;41.13;20.58;;;12.30;99.90;;;;;;5086685;28;20406;-74
2023/05/12 02:25:56;;;;;;;43.40;21.27;;;12.30;99.90;;;;;;5075306;28;20467;-73
2023/05/12 02:28:22;;;;;;;45.53;20.77;;;12.30;99.90;;;;;;5086158;28;20819;-74
2023/05/12 02:30:49;;;;;;;43.13;20.88;;;12.30;99.90;;;;;;5085993;28;20433;-73
2023/05/12 02:33:16;;;;;;;44.92;21.58;;;12.30;99.90;;;;;;5087388;28;20403;-74
2023/05/12 02:35:42;;;;;;;39.25;20.75;;;12.30;99.90;;;;;;5086170;28;20487;-74
2023/05/12 02:38:08;;;;;;;41.88;20.70;;;12.20;99.90;;;;;;5086488;28;20417;-73
2023/05/12 02:40:34;;;;;;;43.47;21.80;;;12.20;99.90;;;;;;5086902;28;20406;-74
2023/05/12 02:43:00;;;;;;;40.77;20.80;;;12.20;99.90;;;;;;5086014;28;20402;-73
2023/05/12 02:45:26;;;;;;;42.15;21.02;;;12.20;99.90;;;;;;5085883;28;20413;-74
2023/05/12 02:47:51;;;;;;;47.30;21.02;;;12.20;99.90;;;;;;5087249;28;20784;-73
2023/05/12 02:50:17;;;;;;;41.23;21.37;;;12.20;99.90;;;;;;5086380;28;20409;-74
2023/05/12 02:52:43;;;;;;;47.25;22.27;;;12.20;99.90;;;;;;5087409;28;20413;-74
2023/05/12 02:55:08;;;;;;;43.70;22.30;;;12.20;99.90;;;;;;5085791;28;20405;-74
2023/05/12 02:57:34;;;;;;;44.80;22.03;;;12.20;99.90;;;;;;5087163;28;20413;-74
2023/05/12 03:00:06;;;;;;;46.10;21.50;;;12.20;99.90;;;;;;5087293;28;20467;-74
2023/05/12 03:02:33;;;;;;;45.78;21.83;;;12.20;99.90;;;;;;5086090;28;20456;-74
2023/05/12 03:04:59;;;;;;;45.17;21.80;;;12.20;99.90;;;;;;5087169;28;20414;-74
2023/05/12 03:07:25;;;;;;;43.97;22.33;;;12.20;99.90;;;;;;5086064;28;20406;-74
2023/05/12 03:09:50;;;;;;;46.20;22.40;;;12.20;99.90;;;;;;5082642;28;20804;-74
2023/05/12 03:12:16;;;;;;;45.80;22.47;;;12.20;99.90;;;;;;5087773;28;20410;-74
2023/05/12 03:14:42;;;;;;;45.58;22.48;;;12.20;99.90;;;;;;5089336;28;20414;-74
2023/05/12 03:17:07;;;;;;;49.17;24.13;;;12.20;99.90;;;;;;5089189;28;20445;-73
2023/05/12 03:19:33;;;;;;;44.03;22.50;;;12.20;99.90;;;;;;5089411;28;20405;-74
2023/05/12 03:22:00;;;;;;;45.35;21.98;;;12.20;99.90;;;;;;5089164;28;20414;-73
2023/05/12 03:24:26;;;;;;;46.92;23.27;;;12.20;99.90;;;;;;5086967;28;20522;-74
2023/05/12 03:26:51;;;;;;;47.97;23.73;;;12.20;99.90;;;;;;5089347;28;20406;-73
2023/05/12 03:29:17;;;;;;;49.50;23.87;;;12.20;99.90;;;;;;5089053;28;20521;-73
2023/05/12 03:31:43;;;;;;;50.38;23.73;;;12.20;99.90;;;;;;5089351;28;20414;-73
2023/05/12 03:34:08;;;;;;;51.15;24.95;;;12.30;99.90;;;;;;5088870;28;20417;-73
2023/05/12 03:36:34;;;;;;;50.77;24.37;;;12.30;99.90;;;;;;5089208;28;20477;-74
2023/05/12 03:39:01;;;;;;;51.50;24.23;;;12.30;99.90;;;;;;5089278;28;20483;-74
2023/05/12 03:41:27;;;;;;;50.17;23.73;;;12.30;99.90;;;;;;5089177;28;20418;-74
2023/05/12 03:43:53;;;;;;;52.80;23.90;;;12.30;99.90;;;;;;5087435;28;20460;-73
2023/05/12 03:46:18;;;;;;;52.50;24.60;;;12.30;99.90;;;;;;5090434;28;20463;-73
2023/05/12 03:48:44;;;;;;;50.23;24.67;;;12.30;99.90;;;;;;5087754;28;20470;-73
2023/05/12 03:51:09;;;;;;;53.70;24.38;;;12.30;99.90;;;;;;5087631;28;20910;-74
2023/05/12 03:53:35;;;;;;;54.07;24.97;;;12.30;99.90;;;;;;5087993;28;20422;-74
2023/05/12 03:56:04;;;;;;;48.25;24.30;;;12.30;99.90;;;;;;5087727;28;20405;-74
2023/05/12 03:58:30;;;;;;;50.42;24.15;;;12.30;99.90;;;;;;5087550;28;20434;-74
2023/05/12 04:00:56;;;;;;;50.25;25.30;;;12.30;99.90;;;;;;5087705;28;20946;-73
2023/05/12 04:03:22;;;;;;;48.13;23.93;;;12.30;99.90;;;;;;5088493;28;20417;-74
2023/05/12 04:05:47;;;;;;;51.47;24.48;;;12.40;99.90;;;;;;5087402;28;20471;-74
2023/05/12 04:08:13;;;;;;;53.42;25.70;;;12.40;99.90;;;;;;5088786;28;20795;-74
2023/05/12 04:10:39;;;;;;;52.87;24.90;;;12.40;99.90;;;;;;5087311;28;20413;-74
2023/05/12 04:13:06;;;;;;;52.93;24.83;;;12.40;99.90;;;;;;5070149;28;20441;-74
2023/05/12 04:15:33;;;;;;;52.15;25.60;;;12.40;99.90;;;;;;5088698;28;20398;-74
2023/05/12 04:17:59;;;;;;;51.95;25.25;;;12.40;99.90;;;;;;5084090;28;20766;-74
2023/05/12 04:20:25;;;;;;;52.42;25.48;;;12.40;99.90;;;;;;5064677;28;20402;-74
2023/05/12 04:22:50;;;;;;;53.73;25.53;;;12.40;99.90;;;;;;5088340;28;20398;-74
2023/05/12 04:25:16;;;;;;;52.47;25.10;;;12.40;99.90;;;;;;5087027;28;20794;-74
2023/05/12 04:27:42;;;;;;;53.33;25.53;;;12.50;99.90;;;;;;5070597;28;20402;-73
2023/05/12 04:30:08;;;;;;;54.90;26.30;;;12.40;99.90;;;;;;5087902;28;20452;-74
2023/05/12 04:32:33;;;;;;;53.67;26.33;;;12.50;99.90;;;;;;5083464;28;20411;-74
2023/05/12 04:34:59;;;;;;;55.50;26.27;;;12.50;99.90;;;;;;5081237;28;20410;-74
2023/05/12 04:37:25;;;;;;;52.13;25.97;;;12.50;99.90;;;;;;5089276;28;20398;-74
2023/05/12 04:39:50;;;;;;;52.50;25.75;;;12.50;99.90;;;;;;5087437;28;20406;-74
2023/05/12 04:42:16;;;;;;;55.35;26.92;;;12.50;99.90;;;;;;5086990;28;20463;-74
2023/05/12 04:44:44;;;;;;;58.80;28.17;;;12.50;99.90;;;;;;5087508;28;20757;-74
2023/05/12 04:47:10;;;;;;;59.70;28.77;;;12.50;99.90;;;;;;5088076;28;20416;-74
2023/05/12 04:49:36;;;;;;;58.33;28.80;;;12.50;99.90;;;;;;5087047;28;20433;-74
2023/05/12 04:52:03;;;;;;;58.13;28.17;;;12.50;99.90;;;;;;5088748;28;20394;-74
2023/05/12 04:54:29;;;;;;;61.95;29.30;;;12.50;99.90;;;;;;5088140;28;20515;-74
2023/05/12 04:56:55;;;;;;;62.45;29.75;;;12.60;99.90;;;;;;5087246;28;20429;-73
2023/05/12 04:59:20;;;;;;;58.63;29.40;;;12.60;99.90;;;;;;5088795;28;20409;-74
2023/05/12 05:01:46;;;;;;;62.67;30.42;;;12.60;99.90;;;;;;5086387;28;20410;-74
2023/05/12 05:04:11;;;;;;;61.47;29.73;;;12.60;99.90;;;;;;5087101;28;20401;-74
2023/05/12 05:06:38;;;;;;;61.20;29.98;;;12.60;99.90;;;;;;5087036;28;20398;-74
2023/05/12 05:09:03;;;;;;;58.75;30.67;;;12.60;99.90;;;;;;5086901;28;20953;-74
2023/05/12 05:11:29;;;;;;;64.37;31.27;;;12.70;99.90;;;;;;5086783;28;20410;-74
2023/05/12 05:13:54;;;;;;;60.45;31.50;;;12.70;99.90;;;;;;5087035;28;20409;-74
2023/05/12 05:16:20;;;;;;;64.07;33.23;;;12.70;99.90;;;;;;5083613;28;20493;-74
2023/05/12 05:18:46;;;;;;;63.67;32.67;;;12.70;99.90;;;;;;5078255;28;20395;-74
2023/05/12 05:21:15;;;;;;;63.08;32.72;;;12.70;99.90;;;;;;5086729;28;20488;-74
2023/05/12 05:23:41;;;;;;;67.63;33.50;;;12.80;99.90;;;;;;5086641;28;20425;-72
2023/05/12 05:26:08;;;;;;;60.27;33.17;;;12.80;99.90;;;;;;5086161;28;20414;-70
2023/05/12 05:28:34;;;;;;;69.18;34.13;;;12.90;99.90;;;;;;5085950;28;20436;-72
2023/05/12 05:31:00;;;;;;;65.70;34.58;;;12.80;99.90;;;;;;5090820;28;20420;-72
2023/05/12 05:33:26;;;;;;;60.50;35.23;;;12.90;99.90;;;;;;5102772;28;21116;-73
2023/05/12 05:35:52;;;;;;;64.03;36.03;;;12.90;99.90;;;;;;5087041;28;20468;-73
2023/05/12 05:38:17;;;;;;;66.95;36.08;;;13.00;99.90;;;;;;5085948;28;20908;-73
2023/05/12 05:40:43;;;;;;;65.72;36.33;;;13.00;99.90;;;;;;5087694;28;20409;-73
2023/05/12 05:43:09;;;;;;;67.33;36.63;;;13.00;99.90;;;;;;5087807;28;20398;-73
2023/05/12 05:45:35;;;;;;;71.68;38.38;;;13.10;99.90;;;;;;5086324;28;20409;-73
2023/05/12 05:48:01;;;;;;;67.22;38.22;;;13.10;99.90;;;;;;5085481;28;20429;-73
2023/05/12 05:50:26;;;;;;;70.88;39.08;;;13.10;99.90;;;;;;5087564;28;20501;-73
2023/05/12 05:52:54;;;;;;;68.70;38.93;;;13.20;99.90;;;;;;5087171;28;20402;-73
2023/05/12 05:55:20;;;;;;;67.75;38.85;;;13.20;99.90;;;;;;5075630;28;20402;-73
2023/05/12 05:57:46;;;;;;;66.90;38.65;;;13.20;99.90;;;;;;5087071;28;20422;-73
2023/05/12 06:00:13;;;;;;;69.13;39.83;;;13.30;99.90;;;;;;5085646;28;20434;-73
2023/05/12 06:02:39;;;;;;;68.78;40.05;;;13.30;99.90;;;;;;5086382;28;20455;-73
2023/05/12 06:05:05;;;;;;;67.32;40.45;;;13.40;99.90;;;;;;5069256;28;20442;-73
2023/05/12 06:07:31;;;;;;;71.57;40.83;;;13.40;99.90;;;;;;5085801;28;20949;-73
2023/05/12 06:09:57;;;;;;;71.85;41.17;;;13.40;99.90;;;;;;5085352;28;20495;-74
2023/05/12 06:12:23;;;;;;;70.53;41.83;;;13.50;99.90;;;;;;5069589;28;20927;-73
2023/05/12 06:14:48;;;;;;;72.80;41.60;;;13.50;99.90;;;;;;5080348;28;20924;-73
2023/05/12 06:17:14;;;;;;;69.82;42.10;;;13.50;99.90;;;;;;5080405;28;20768;-73
2023/05/12 06:19:39;;;;;;;70.10;42.33;;;13.60;99.90;;;;;;5086078;28;20406;-73
2023/05/12 06:22:05;;;;;;;69.65;42.78;;;13.60;99.90;;;;;;5085618;28;20448;-73
2023/05/12 06:24:31;;;;;;;67.63;41.07;;;13.60;99.90;;;;;;5085991;28;20465;-73
2023/05/12 06:26:56;;;;;;;67.75;40.80;;;13.60;99.90;;;;;;5087178;28;20431;-73
2023/05/12 06:29:22;;;;;;;67.67;40.63;;;13.70;99.90;;;;;;5087039;28;20434;-73
2023/05/12 06:31:47;;;;;;;74.20;42.47;;;13.70;99.90;;;;;;5085579;28;20768;-73
2023/05/12 06:34:13;;;;;;;68.73;41.33;;;13.70;99.90;;;;;;5085778;28;20406;-73
2023/05/12 06:36:39;;;;;;;72.22;43.38;;;13.70;99.90;;;;;;5068978;28;20407;-74
2023/05/12 06:39:04;;;;;;;69.73;42.63;;;13.80;99.90;;;;;;5085216;28;20507;-73
2023/05/12 06:41:31;;;;;;;66.60;41.50;;;13.80;99.90;;;;;;5085845;28;20402;-73
2023/05/12 06:43:56;;;;;;;68.07;41.88;;;13.90;99.90;;;;;;5087239;28;20475;-73
2023/05/12 06:46:22;;;;;;;62.90;41.37;;;13.80;99.90;;;;;;5086630;28;20463;-74
2023/05/12 06:48:47;;;;;;;67.30;41.13;;;13.90;99.90;;;;;;5089212;28;20437;-73
2023/05/12 06:51:13;;;;;;;66.47;42.03;;;13.90;99.90;;;;;;5089513;28;20448;-73
2023/05/12 06:53:40;;;;;;;64.47;41.63;;;13.90;99.90;;;;;;5089597;28;20410;-74
2023/05/12 06:56:06;;;;;;;64.97;41.77;;;13.90;99.90;;;;;;5072841;28;20398;-73
2023/05/12 06:58:31;;;;;;;62.65;41.63;;;13.90;99.90;;;;;;5089202;28;20398;-73
2023/05/12 07:00:57;;;;;;;64.68;41.90;;;13.90;99.90;;;;;;5089656;28;20406;-73
2023/05/12 07:03:23;;;;;;;61.93;41.47;;;13.90;99.90;;;;;;5089789;28;20430;-74
2023/05/12 07:05:49;;;;;;;61.63;41.60;;;14.00;99.90;;;;;;5089809;28;20413;-73
2023/05/12 07:08:14;;;;;;;62.53;42.03;;;14.00;99.90;;;;;;5088059;28;20418;-73
2023/05/12 07:10:40;;;;;;;63.37;41.47;;;14.00;99.90;;;;;;5089179;28;20401;-73
2023/05/12 07:13:06;;;;;;;65.90;42.97;;;14.10;99.90;;;;;;5086089;28;20407;-73
2023/05/12 07:15:32;;;;;;;65.13;41.45;;;14.10;99.90;;;;;;5084562;28;20475;-73
2023/05/12 07:17:57;;;;;;;68.57;43.83;;;14.10;99.90;;;;;;5069123;28;20430;-73
2023/05/12 07:20:23;;;;;;;63.72;42.67;;;14.20;99.90;;;;;;5089444;28;20483;-73
2023/05/12 07:22:50;;;;;;;64.37;42.97;;;14.30;99.90;;;;;;5089389;28;20564;-74
2023/05/12 07:25:17;;;;;;;63.30;43.08;;;14.40;99.90;;;;;;5089006;28;20398;-74
2023/05/12 07:27:43;;;;;;;58.88;42.72;;;14.40;99.90;;;;;;5090602;28;20455;-74
2023/05/12 07:30:09;;;;;;;59.20;41.93;;;14.50;99.90;;;;;;5088850;28;20402;-73
2023/05/12 07:32:35;;;;;;;59.97;41.28;;;14.60;99.90;;;;;;5089615;28;21513;-73
2023/05/12 07:35:00;;;;;;;56.00;40.58;;;14.60;99.90;;;;;;5090821;28;20420;-74
2023/05/12 07:37:26;;;;;;;58.00;40.92;;;14.70;99.90;;;;;;5088521;28;20960;-74
2023/05/12 07:39:52;;;;;;;55.67;40.37;;;14.80;99.90;;;;;;5090333;28;20455;-74
2023/05/12 07:42:17;;;;;;;55.10;40.90;;;14.90;99.90;;;;;;5088973;28;20464;-74
2023/05/12 07:44:43;;;;;;;52.23;39.23;;;15.00;99.90;;;;;;5072117;28;20437;-73
2023/05/12 07:47:08;;;;;;;53.53;40.00;;;15.10;99.90;;;;;;5088471;28;20397;-74
2023/05/12 07:49:34;;;;;;;51.83;39.43;;;15.20;99.90;;;;;;5090117;28;20938;-74
2023/05/12 07:52:00;;;;;;;49.50;39.07;;;15.30;99.90;;;;;;5090070;28;20410;-73
2023/05/12 07:54:25;;;;;;;50.83;39.00;;;15.40;99.90;;;;;;5090157;28;20504;-74
2023/05/12 07:56:51;;;;;;;49.15;38.03;;;15.40;99.90;;;;;;5089578;28;20402;-74
2023/05/12 07:59:17;;;;;;;50.73;38.30;;;15.60;99.90;;;;;;5087914;28;20402;-74
2023/05/12 08:01:42;;;;;;;50.22;39.03;;;15.70;99.90;;;;;;5089503;28;20401;-74
2023/05/12 08:04:08;;;;;;;47.77;38.10;;;15.80;99.90;;;;;;5088691;28;20845;-74
2023/05/12 08:06:34;;;;;;;46.70;37.58;;;15.80;99.90;;;;;;5089442;28;20463;-73
2023/05/12 08:09:00;;;;;;;47.47;37.53;;;15.90;99.90;;;;;;5071415;28;20430;-74
2023/05/12 08:11:25;;;;;;;47.17;38.42;;;16.00;99.90;;;;;;5088418;28;20471;-74
2023/05/12 08:13:51;;;;;;;50.00;38.40;;;16.20;99.90;;;;;;5089838;28;20406;-74
2023/05/12 08:16:17;;;;;;;48.60;39.03;;;16.20;99.90;;;;;;5089624;28;20413;-74
2023/05/12 08:18:43;;;;;;;45.45;36.33;;;16.30;99.90;;;;;;5089155;28;20403;-74
2023/05/12 08:21:09;;;;;;;45.17;36.42;;;16.50;99.90;;;;;;5088219;28;20410;-74
2023/05/12 08:23:36;;;;;;;43.30;35.23;;;16.60;99.90;;;;;;5088026;28;21029;-74
2023/05/12 08:26:03;;;;;;;41.80;34.93;;;16.70;99.90;;;;;;5084748;28;20432;-74
2023/05/12 08:28:29;;;;;;;41.88;35.50;;;16.80;99.90;;;;;;5087936;28;20795;-74
2023/05/12 08:30:56;;;;;;;39.20;33.30;;;16.80;99.90;;;;;;5089215;28;20922;-74
2023/05/12 08:33:21;;;;;;;41.70;34.45;;;16.80;99.90;;;;;;5075746;28;20909;-74
2023/05/12 08:35:47;;;;;;;41.10;34.47;;;16.80;99.90;;;;;;5087550;28;20405;-74
2023/05/12 08:38:12;;;;;;;39.37;34.73;;;17.00;99.90;;;;;;5089304;28;20502;-74
2023/05/12 08:40:52;;;;;;;40.38;34.42;;;17.10;99.90;;;;;;5087316;28;20983;-74
2023/05/12 08:43:24;;;;;;;38.37;33.10;;;17.20;99.90;;;;;;5087383;28;20900;-74
2023/05/12 08:45:50;;;;;;;36.72;31.92;;;17.30;99.90;;;;;;5087522;28;20421;-74
2023/05/12 08:48:18;;;;;;;38.47;31.80;;;17.40;99.90;;;;;;5087365;28;20939;-74
2023/05/12 08:50:46;;;;;;;36.95;32.10;;;17.50;99.90;;;;;;5088364;28;20418;-74
2023/05/12 08:53:14;;;;;;;38.10;33.03;;;17.60;99.90;;;;;;5086907;28;20908;-74
2023/05/12 08:55:41;;;;;;;44.05;34.28;;;17.70;99.90;;;;;;5070719;28;20481;-74
2023/05/12 08:58:07;;;;;;;37.70;33.08;;;17.80;99.90;;;;;;5086945;28;20410;-74
2023/05/12 09:00:35;;;;;;;38.70;31.80;;;17.90;99.90;;;;;;5087640;28;20406;-74
2023/05/12 09:03:05;;;;;;;35.55;30.88;;;18.10;99.90;;;;;;5086729;28;20421;-74
2023/05/12 09:05:31;;;;;;;29.42;26.05;;;18.20;99.90;;;;;;5088368;28;21002;-74
2023/05/12 09:07:58;;;;;;;30.73;26.97;;;18.40;99.90;;;;;;5076886;28;20398;-74
2023/05/12 09:10:26;;;;;;;31.33;27.85;;;18.50;99.90;;;;;;5077391;28;20400;-74
2023/05/12 09:12:54;;;;;;;31.25;26.48;;;18.60;99.90;;;;;;5086388;28;20401;-74
2023/05/12 09:15:26;;;;;;;28.75;25.70;;;18.80;99.90;;;;;;5088728;28;20422;-74
2023/05/12 09:17:51;;;;;;;27.48;24.50;;;19.00;99.90;;;;;;5088757;28;20459;-74
2023/05/12 09:20:18;;;;;;;28.13;24.70;;;19.10;99.90;;;;;;5088220;28;20767;-74
2023/05/12 09:22:43;;;;;;;27.67;23.63;;;19.10;99.90;;;;;;5088138;28;20457;-74
2023/05/12 09:25:20;;;;;;;25.65;22.20;;;19.30;99.90;;;;;;5087612;28;20394;-74
2023/05/12 09:27:47;;;;;;;24.52;21.42;;;19.60;99.90;;;;;;5085680;28;21020;-74
2023/05/12 09:30:14;;;;;;;21.50;19.20;;;20.10;99.90;;;;;;5087815;28;20402;-74
2023/05/12 09:32:40;;;;;;;20.50;18.38;;;20.50;99.90;;;;;;5086524;28;20934;-74
2023/05/12 09:35:09;;;;;;;20.85;18.75;;;20.50;99.90;;;;;;5075013;28;20399;-74
2023/05/12 09:37:36;;;;;;;20.15;18.05;;;20.40;99.90;;;;;;5074917;28;20449;-74
2023/05/12 09:40:04;;;;;;;20.45;18.08;;;20.10;99.90;;;;;;5088011;28;21018;-74
2023/05/12 09:42:32;;;;;;;20.00;17.88;;;19.90;99.90;;;;;;5088455;28;20402;-74
2023/05/12 09:44:59;;;;;;;21.05;18.10;;;19.80;99.90;;;;;;5086597;28;20416;-74
2023/05/12 09:47:32;;;;;;;20.63;17.95;;;19.80;99.90;;;;;;5086634;28;20421;-74
2023/05/12 09:50:00;;;;;;;18.58;16.27;;;19.90;99.90;;;;;;5086550;28;20505;-74
2023/05/12 09:52:26;;;;;;;17.13;15.27;;;20.10;99.90;;;;;;5086884;28;20406;-74
2023/05/12 09:54:51;;;;;;;18.70;16.70;;;20.20;99.90;;;;;;5087718;28;20778;-74
2023/05/12 09:57:19;;;;;;;16.55;14.85;;;20.50;99.90;;;;;;5069744;28;20461;-75
2023/05/12 09:59:46;;;;;;;18.23;16.33;;;20.80;99.90;;;;;;5086751;28;20956;-74
2023/05/12 10:02:15;;;;;;;;;;;21.30;99.90;;;;;;5089567;28;20095;-74
2023/05/12 10:04:44;;;;;;;;;;;21.80;99.90;;;;;;5089357;28;19927;-74
2023/05/12 10:07:11;;;;;;;;;;;22.10;99.90;;;;;;5089765;28;19965;-75
2023/05/12 10:09:38;;;;;;;;;;;22.40;99.90;;;;;;5087351;28;19930;-75
2023/05/12 10:12:05;;;;;;;15.05;13.45;;;22.80;99.90;;;;;;5089153;28;19927;-75
2023/05/12 10:14:31;;;;;;;14.77;13.27;;;23.00;99.90;;;;;;5085876;28;20911;-75
2023/05/12 10:16:58;;;;;;;;;;;23.10;99.90;;;;;;5089947;28;20060;-75
2023/05/12 10:19:24;;;;;;;;;;;23.20;99.90;;;;;;5070941;28;19920;-75
2023/05/12 10:21:50;;;;;;;14.40;12.43;;;23.40;99.90;;;;;;5092265;28;20019;-75
2023/05/12 10:24:16;;;;;;;13.70;11.75;;;23.50;99.90;;;;;;5091478;28;20473;-75
2023/05/12 10:26:43;;;;;;;13.07;11.77;;;23.60;99.90;;;;;;5090753;28;20410;-75
2023/05/12 10:29:09;;;;;;;12.48;11.18;;;23.70;99.90;;;;;;5073000;28;20522;-75
2023/05/12 10:31:37;;;;;;;11.27;10.02;;;23.80;99.90;;;;;;5090534;28;20406;-75
2023/05/12 10:34:03;;;;;;;11.45;9.68;;;24.00;99.90;;;;;;5090114;28;20476;-75
2023/05/12 10:36:28;;;;;;;10.15;8.90;;;24.20;99.90;;;;;;5091936;28;20430;-75
2023/05/12 10:38:55;;;;;;;10.60;9.40;;;24.30;99.90;;;;;;5091389;28;20397;-75
2023/05/12 10:41:33;;;;;;;9.23;8.15;;;24.50;99.90;;;;;;5091361;28;20409;-75
2023/05/12 10:43:59;;;;;;;10.85;7.95;;;24.60;99.90;;;;;;5090924;28;20055;-75
2023/05/12 10:46:26;;;;;;;;;;;24.70;99.90;;;;;;5091813;28;20044;-75
2023/05/12 10:48:54;;;;;;;;;;;24.70;99.90;;;;;;5092344;28;19924;-75
2023/05/12 10:51:31;;;;;;;9.38;6.13;;;24.80;99.90;;;;;;5074169;28;20066;-75
2023/05/12 10:54:02;;;;;;;8.82;7.57;;;25.00;99.90;;;;;;5089900;28;20405;-75
2023/05/12 10:56:48;;;;;;;8.57;7.00;;;25.30;99.90;;;;;;5089696;28;20406;-75
2023/05/12 10:59:18;;;;;;;;;;;25.40;99.90;;;;;;5092845;28;20052;-75
2023/05/12 11:01:57;;;;;;;;;;;25.50;99.90;;;;;;5089013;28;20011;-75
2023/05/12 11:04:33;;;;;;;7.60;5.82;;;25.70;99.90;;;;;;5092283;28;19971;-75
2023/05/12 11:06:59;;;;;;;11.13;6.72;;;25.90;99.90;;;;;;5080217;28;20497;-75
2023/05/12 11:09:25;;;;;;;7.55;6.53;;;26.20;99.90;;;;;;5089216;28;20430;-75
2023/05/12 11:11:51;;;;;;;9.23;6.57;;;26.40;99.90;;;;;;5090878;28;20455;-75
2023/05/12 11:14:16;;;;;;;7.30;6.07;;;26.50;99.90;;;;;;5089325;28;20398;-75
2023/05/12 11:16:45;;;;;;;7.28;6.10;;;26.50;99.90;;;;;;5089574;28;20413;-75
2023/05/12 11:19:11;;;;;;;8.88;5.47;;;26.40;99.90;;;;;;5080941;28;20050;-75
2023/05/12 11:21:37;;;;;;;;;;;26.30;99.90;;;;;;5091416;28;20059;-75
2023/05/12 11:24:03;;;;;;;5.55;4.88;;;26.20;99.90;;;;;;5092080;28;19920;-75
2023/05/12 11:26:29;;;;;;;8.02;5.90;;;26.10;99.90;;;;;;5088970;28;20734;-75
2023/05/12 11:28:58;;;;;;;9.02;5.63;;;26.00;99.90;;;;;;5088855;28;20436;-75
2023/05/12 11:31:24;;;;;;;7.00;5.35;;;26.00;99.90;;;;;;5089364;28;20402;-75
2023/05/12 11:34:02;;;;;;;7.33;5.10;;;26.00;99.90;;;;;;5068198;28;21031;-75
2023/05/12 11:36:27;;;;;;;6.03;4.70;;;26.10;99.90;;;;;;5081608;28;20467;-75
2023/05/12 11:38:53;;;;;;;6.33;4.70;;;26.20;99.90;;;;;;5088521;28;21145;-75
2023/05/12 11:41:25;;;;;;;7.23;4.80;;;26.30;99.80;;;;;;5089473;28;20865;-75
2023/05/12 11:43:51;;;;;;;5.00;4.05;;;26.30;99.40;;;;;;5089626;28;20965;-75
2023/05/12 11:46:25;;;;;;;5.32;3.40;;;26.20;98.90;;;;;;5090021;28;20428;-75
2023/05/12 11:48:58;;;;;;;6.65;3.60;;;26.40;99.30;;;;;;5087795;28;20433;-75
2023/05/12 11:51:25;;;;;;;4.22;3.33;;;26.60;98.90;;;;;;5089740;28;20896;-75
2023/05/12 11:53:54;;;;;;;6.22;3.17;;;26.80;97.50;;;;;;5088473;28;20402;-75
2023/05/12 11:56:22;;;;;;;4.82;3.40;;;26.90;97.10;;;;;;5088436;28;20418;-75
2023/05/12 11:58:51;;;;;;;;;;;27.00;96.50;;;;;;5062422;28;20054;-75
2023/05/12 12:01:17;;;;;;;;;;;27.20;95.60;;;;;;5091597;28;19942;-75
2023/05/12 12:03:49;;;;;;;;;;;27.40;93.70;;;;;;5091491;28;19924;-75
2023/05/12 12:06:14;;;;;;;;;;;27.50;93.10;;;;;;5090895;28;19974;-75
2023/05/12 12:08:53;;;;;;;;;;;27.60;95.20;;;;;;5091514;28;19920;-75
2023/05/12 12:11:20;;;;;;;;;;;27.80;93.70;;;;;;5091092;28;20282;-75
2023/05/12 12:13:55;;;;;;;;;;;27.90;93.10;;;;;;5089683;28;19977;-75
2023/05/12 12:16:25;;;;;;;;;;;27.90;91.10;;;;;;5087192;28;20325;-76
2023/05/12 12:18:50;;;;;;;;;;;28.00;92.20;;;;;;5089938;28;19924;-76
2023/05/12 12:21:16;;;;;;;7.32;4.13;;;28.10;94.90;;;;;;5090976;28;20300;-75
2023/05/12 12:23:41;;;;;;;6.90;4.45;;;28.20;94.10;;;;;;5089052;28;20047;-75
2023/05/12 12:26:07;;;;;;;6.30;4.80;;;28.20;95.60;;;;;;5087526;28;20512;-75
2023/05/12 12:28:34;;;;;;;7.93;6.00;;;28.10;94.10;;;;;;5071402;28;20428;-75
2023/05/12 12:31:00;;;;;;;7.78;6.18;;;28.00;95.80;;;;;;5088099;28;20402;-75
2023/05/12 12:33:25;;;;;;;7.93;5.82;;;27.80;96.60;;;;;;5071044;28;20963;-75